Time;durP1;ratioP1;P1;durP2;ratioP2;P2;SDS_P1;SDS_P2;PMS_P1;PMS_P2;Temp;Humidity;BMP_temperature;BMP_pressure;BME280_temperature;BME280_humidity;BME280_pressure;Samples;Min_cycle;Max_cycle;Signal;HPM_P1;HPM_P2
2022/01/04 00:01:08;;;;;;;0.50;0.35;;;7.90;99.90;;;;;;5063524;28;20193;-69
2022/01/04 00:03:35;;;;;;;0.90;0.90;;;7.90;99.90;;;;;;5064151;28;20213;-69
2022/01/04 00:06:02;;;;;;;1.08;0.98;;;7.90;99.90;;;;;;5063239;28;20790;-69
2022/01/04 00:08:28;;;;;;;0.65;0.43;;;7.80;99.90;;;;;;5061394;28;20571;-69
2022/01/04 00:11:06;;;;;;;1.30;0.90;;;7.80;99.90;;;;;;5058260;28;20636;-69
2022/01/04 00:13:32;;;;;;;0.77;0.70;;;7.80;99.90;;;;;;5067383;28;20285;-69
2022/01/04 00:16:03;;;;;;;2.90;0.88;;;7.80;99.90;;;;;;5067028;28;20341;-69
2022/01/04 00:18:29;;;;;;;0.60;0.55;;;7.80;99.90;;;;;;5062632;28;20296;-69
2022/01/04 00:20:56;;;;;;;1.00;0.60;;;7.80;99.90;;;;;;5064313;28;20209;-69
2022/01/04 00:23:23;;;;;;;0.70;0.60;;;7.80;99.90;;;;;;5052844;28;20206;-69
2022/01/04 00:25:49;;;;;;;0.93;0.38;;;7.80;99.90;;;;;;5063913;28;20809;-69
2022/01/04 00:28:16;;;;;;;1.05;0.50;;;7.80;99.90;;;;;;5063605;28;20271;-69
2022/01/04 00:30:43;;;;;;;1.75;1.30;;;7.70;99.90;;;;;;5057590;28;20330;-69
2022/01/04 00:33:13;;;;;;;1.20;0.88;;;7.70;99.90;;;;;;5063266;28;20753;-70
2022/01/04 00:35:40;;;;;;;0.82;0.50;;;7.70;99.90;;;;;;5052027;28;20430;-69
2022/01/04 00:38:08;;;;;;;0.50;0.50;;;7.70;99.90;;;;;;5063722;28;20197;-70
2022/01/04 00:40:35;;;;;;;1.08;1.08;;;7.60;99.90;;;;;;5064893;28;20693;-69
2022/01/04 00:43:02;;;;;;;0.50;0.40;;;7.60;99.90;;;;;;5068609;28;20201;-69
2022/01/04 00:45:32;;;;;;;3.55;0.55;;;7.60;99.90;;;;;;5067489;28;20201;-70
2022/01/04 00:50:56;;;;;;;0.50;0.38;;;7.60;99.90;;;;;;5023864;28;20538;-69
2022/01/04 00:53:23;;;;;;;0.50;0.40;;;7.60;99.90;;;;;;5052258;28;20316;-70
2022/01/04 00:55:49;;;;;;;0.80;0.45;;;7.60;99.90;;;;;;5065375;28;20671;-70
2022/01/04 00:58:16;;;;;;;0.75;0.50;;;7.50;99.90;;;;;;5067192;28;20228;-70
2022/01/04 01:00:43;;;;;;;0.50;0.30;;;7.50;99.90;;;;;;5067172;28;20201;-70
2022/01/04 01:03:10;;;;;;;1.00;0.63;;;7.50;99.90;;;;;;5064929;28;20274;-69
2022/01/04 01:05:36;;;;;;;0.70;0.50;;;7.50;99.90;;;;;;5062080;28;20718;-69
2022/01/04 01:08:05;;;;;;;0.60;0.40;;;7.50;99.90;;;;;;5068029;28;20685;-70
2022/01/04 01:10:42;;;;;;;0.52;0.45;;;7.50;99.90;;;;;;5066482;28;20338;-70
2022/01/04 01:13:10;;;;;;;2.45;0.65;;;7.50;99.90;;;;;;5066216;28;20284;-70
2022/01/04 01:15:38;;;;;;;0.60;0.40;;;7.50;99.90;;;;;;5075466;28;20250;-69
2022/01/04 01:18:04;;;;;;;1.20;0.50;;;7.50;99.90;;;;;;5068392;28;20201;-69
2022/01/04 01:20:31;;;;;;;0.82;0.65;;;7.50;99.90;;;;;;5070489;28;20289;-69
2022/01/04 01:22:58;;;;;;;0.50;0.40;;;7.50;99.90;;;;;;5072690;28;20570;-70
2022/01/04 01:25:26;;;;;;;0.50;0.30;;;7.50;99.90;;;;;;5072376;28;20209;-70
2022/01/04 01:27:53;;;;;;;0.60;0.57;;;7.50;99.90;;;;;;5071576;28;20220;-70
2022/01/04 01:30:20;;;;;;;0.50;0.40;;;7.50;99.90;;;;;;5065582;28;20736;-70
2022/01/04 01:32:48;;;;;;;0.63;0.43;;;7.50;99.90;;;;;;5066198;28;20197;-70
2022/01/04 01:35:15;;;;;;;0.82;0.65;;;7.50;99.90;;;;;;5068216;28;20197;-70
2022/01/04 01:37:41;;;;;;;0.50;0.35;;;7.50;99.90;;;;;;5066111;28;20635;-71
2022/01/04 01:40:09;;;;;;;0.90;0.47;;;7.50;99.90;;;;;;5069002;28;20557;-70
2022/01/04 01:42:37;;;;;;;0.85;0.50;;;7.50;99.90;;;;;;5071249;28;20724;-70
2022/01/04 01:45:05;;;;;;;0.90;0.50;;;7.50;99.90;;;;;;5074564;28;20638;-70
2022/01/04 01:47:31;;;;;;;0.50;0.40;;;7.50;99.90;;;;;;5064659;28;20224;-70
2022/01/04 01:49:58;;;;;;;0.93;0.70;;;7.50;99.90;;;;;;5071593;28;20296;-70
2022/01/04 01:52:25;;;;;;;0.50;0.40;;;7.40;99.90;;;;;;5061966;28;20322;-70
2022/01/04 01:54:53;;;;;;;0.50;0.40;;;7.40;99.90;;;;;;5061018;28;20926;-70
2022/01/04 01:57:20;;;;;;;0.50;0.40;;;7.40;99.90;;;;;;5066735;28;20268;-70
2022/01/04 01:59:48;;;;;;;2.55;0.47;;;7.40;99.90;;;;;;5071491;28;20695;-70
2022/01/04 02:02:14;;;;;;;0.60;0.38;;;7.40;99.90;;;;;;5074649;28;20666;-70
2022/01/04 02:04:41;;;;;;;0.50;0.30;;;7.40;99.90;;;;;;5068752;28;20197;-70
2022/01/04 02:07:09;;;;;;;0.70;0.40;;;7.40;99.90;;;;;;5064605;28;20687;-70
2022/01/04 02:09:40;;;;;;;1.40;0.40;;;7.40;99.90;;;;;;5074499;28;20262;-69
2022/01/04 02:12:10;;;;;;;0.50;0.50;;;7.40;99.90;;;;;;5066915;28;20604;-70
2022/01/04 02:14:36;;;;;;;0.50;0.30;;;7.40;99.90;;;;;;5067535;28;20225;-70
2022/01/04 02:17:05;;;;;;;0.40;0.40;;;7.40;99.90;;;;;;5071887;28;20289;-70
2022/01/04 02:19:36;;;;;;;1.27;0.80;;;7.40;99.90;;;;;;5062605;28;20302;-69
2022/01/04 02:22:03;;;;;;;1.98;0.60;;;7.40;99.90;;;;;;5068215;28;21020;-70
2022/01/04 02:24:31;;;;;;;1.30;0.70;;;7.40;99.90;;;;;;5067030;28;20246;-70
2022/01/04 02:26:59;;;;;;;0.82;0.50;;;7.30;99.90;;;;;;5072288;28;20686;-70
2022/01/04 02:29:26;;;;;;;0.80;0.50;;;7.30;99.90;;;;;;5065433;28;20209;-70
2022/01/04 02:31:53;;;;;;;0.50;0.30;;;7.40;99.90;;;;;;5073912;28;20205;-70
2022/01/04 02:34:20;;;;;;;0.93;0.73;;;7.30;99.90;;;;;;5065161;28;20733;-70
2022/01/04 02:36:48;;;;;;;0.40;0.30;;;7.30;99.90;;;;;;5068012;28;20754;-70
2022/01/04 02:39:14;;;;;;;1.67;0.55;;;7.30;99.90;;;;;;5061043;28;20688;-70
2022/01/04 02:41:41;;;;;;;1.60;0.40;;;7.30;99.90;;;;;;5065728;28;20279;-69
2022/01/04 02:44:08;;;;;;;0.60;0.50;;;7.30;99.90;;;;;;5065057;28;20250;-70
2022/01/04 02:49:02;;;;;;;0.98;0.43;;;7.30;99.90;;;;;;4970552;28;20246;-68
2022/01/04 02:51:29;;;;;;;0.50;0.40;;;7.40;99.90;;;;;;4966099;28;20250;-70
2022/01/04 02:53:57;;;;;;;0.70;0.43;;;7.40;99.90;;;;;;5001162;28;20267;-70
2022/01/04 02:56:23;;;;;;;0.80;0.77;;;7.30;99.90;;;;;;4968914;28;20205;-69
2022/01/04 02:58:50;;;;;;;0.50;0.40;;;7.30;99.90;;;;;;4967360;28;20220;-69
2022/01/04 03:01:17;;;;;;;0.60;0.60;;;7.40;99.90;;;;;;4965700;28;20694;-70
2022/01/04 03:03:44;;;;;;;0.68;0.55;;;7.30;99.90;;;;;;4959100;28;20196;-69
2022/01/04 03:06:14;;;;;;;0.40;0.30;;;7.30;99.90;;;;;;4963450;28;20262;-69
2022/01/04 03:08:40;;;;;;;1.33;0.50;;;7.30;99.90;;;;;;4963954;28;20647;-68
2022/01/04 03:11:09;;;;;;;1.05;0.57;;;7.30;99.90;;;;;;4964550;28;20257;-69
2022/01/04 03:13:36;;;;;;;0.50;0.40;;;7.30;99.90;;;;;;4961927;28;20208;-69
2022/01/04 03:16:02;;;;;;;0.40;0.40;;;7.30;99.90;;;;;;4960339;28;20559;-69
2022/01/04 03:18:29;;;;;;;0.73;0.50;;;7.30;99.90;;;;;;4960008;28;20295;-69
2022/01/04 03:20:56;;;;;;;0.85;0.85;;;7.30;99.90;;;;;;4964753;28;20201;-69
2022/01/04 03:23:22;;;;;;;0.50;0.50;;;7.30;99.90;;;;;;4965266;28;20201;-69
2022/01/04 03:25:49;;;;;;;0.50;0.40;;;7.30;99.90;;;;;;4968454;28;20728;-68
2022/01/04 03:28:19;;;;;;;0.50;0.38;;;7.30;99.90;;;;;;4969588;28;20714;-67
2022/01/04 03:30:46;;;;;;;0.80;0.50;;;7.30;99.90;;;;;;4966691;28;20223;-68
2022/01/04 03:33:15;;;;;;;0.50;0.40;;;7.30;99.90;;;;;;4968971;28;20254;-68
2022/01/04 03:35:41;;;;;;;0.95;0.50;;;7.30;99.90;;;;;;4967948;28;20221;-68
2022/01/04 03:38:08;;;;;;;1.17;0.73;;;7.30;99.90;;;;;;4969130;28;20625;-68
2022/01/04 03:40:35;;;;;;;0.50;0.38;;;7.30;99.90;;;;;;4968045;28;20589;-68
2022/01/04 03:43:01;;;;;;;0.70;0.70;;;7.30;99.90;;;;;;4968219;28;20682;-68
2022/01/04 03:45:29;;;;;;;0.60;0.60;;;7.30;99.90;;;;;;4967489;28;20234;-68
2022/01/04 03:47:56;;;;;;;0.50;0.40;;;7.20;99.90;;;;;;4977883;28;20285;-68
2022/01/04 03:50:22;;;;;;;0.57;0.50;;;7.20;99.90;;;;;;4988320;28;20233;-68
2022/01/04 03:52:49;;;;;;;0.77;0.70;;;7.20;99.90;;;;;;4987541;28;20212;-68
2022/01/04 03:55:16;;;;;;;0.80;0.50;;;7.10;99.90;;;;;;4983807;28;20231;-68
2022/01/04 03:57:42;;;;;;;1.60;0.55;;;7.20;99.90;;;;;;4983898;28;20735;-69
2022/01/04 04:00:10;;;;;;;0.50;0.40;;;7.20;99.90;;;;;;4983234;28;20212;-68
2022/01/04 04:02:38;;;;;;;0.95;0.60;;;7.20;99.90;;;;;;4981922;28;20209;-68
2022/01/04 04:05:06;;;;;;;2.67;0.77;;;7.20;99.90;;;;;;4980659;28;20812;-68
2022/01/04 04:07:33;;;;;;;0.80;0.65;;;7.20;99.90;;;;;;4985593;28;20216;-69
2022/01/04 04:09:59;;;;;;;0.93;0.50;;;7.20;99.90;;;;;;4980553;28;20208;-69
2022/01/04 04:12:26;;;;;;;0.50;0.40;;;7.20;99.90;;;;;;4986907;28;20734;-68
2022/01/04 04:14:52;;;;;;;0.90;0.82;;;7.20;99.90;;;;;;4983119;28;20830;-68
2022/01/04 04:17:19;;;;;;;1.30;1.10;;;7.10;99.90;;;;;;4988407;28;20227;-68
2022/01/04 04:19:47;;;;;;;0.60;0.50;;;7.10;99.90;;;;;;4987703;28;20200;-68
2022/01/04 04:22:14;;;;;;;1.00;0.80;;;7.10;99.90;;;;;;4989345;28;20204;-68
2022/01/04 04:24:41;;;;;;;0.60;0.60;;;7.10;99.90;;;;;;4987668;28;20204;-68
2022/01/04 04:27:08;;;;;;;1.35;0.80;;;7.20;99.90;;;;;;4985423;28;20223;-69
2022/01/04 04:29:34;;;;;;;1.15;0.70;;;7.20;99.90;;;;;;4989314;28;20253;-68
2022/01/04 04:32:01;;;;;;;0.73;0.73;;;7.10;99.90;;;;;;4986839;28;20261;-68
2022/01/04 04:34:28;;;;;;;1.20;1.10;;;7.10;99.90;;;;;;4986318;28;20224;-68
2022/01/04 04:36:56;;;;;;;0.90;0.90;;;7.00;99.90;;;;;;4988908;28;20277;-69
2022/01/04 04:39:22;;;;;;;0.70;0.65;;;7.00;99.90;;;;;;5023548;28;20246;-70
2022/01/04 04:41:49;;;;;;;1.45;0.90;;;7.00;99.90;;;;;;4989769;28;20254;-70
2022/01/04 04:44:16;;;;;;;1.00;0.60;;;7.00;99.90;;;;;;4988607;28;20200;-68
2022/01/04 04:46:43;;;;;;;1.10;1.00;;;7.10;99.90;;;;;;4989445;28;20559;-68
2022/01/04 04:49:09;;;;;;;0.77;0.77;;;7.10;99.90;;;;;;4988205;28;20200;-68
2022/01/04 04:51:36;;;;;;;1.40;0.70;;;7.10;99.90;;;;;;4986670;28;20197;-68
2022/01/04 04:54:05;;;;;;;1.45;1.08;;;7.10;99.90;;;;;;4987257;28;20238;-68
2022/01/04 04:56:31;;;;;;;0.70;0.70;;;7.10;99.90;;;;;;4985397;28;20616;-68
2022/01/04 04:58:58;;;;;;;1.17;1.08;;;7.10;99.90;;;;;;4990319;28;20230;-68
2022/01/04 05:01:25;;;;;;;1.10;0.88;;;7.20;99.90;;;;;;4985486;28;20258;-70
2022/01/04 05:03:52;;;;;;;0.73;0.63;;;7.10;99.90;;;;;;4980059;28;22053;-68
2022/01/04 05:06:19;;;;;;;1.10;0.80;;;7.20;99.90;;;;;;4987223;28;20211;-68
2022/01/04 05:08:45;;;;;;;1.10;1.00;;;7.10;99.90;;;;;;4986128;28;20220;-68
2022/01/04 05:11:13;;;;;;;1.65;1.20;;;7.20;99.90;;;;;;4981454;28;20208;-68
2022/01/04 05:13:40;;;;;;;0.80;0.63;;;7.20;99.90;;;;;;4980909;28;20207;-68
2022/01/04 05:16:07;;;;;;;5.70;1.02;;;7.20;99.90;;;;;;4986751;28;20249;-68
2022/01/04 05:18:34;;;;;;;0.75;0.50;;;7.20;99.90;;;;;;4983161;28;20216;-68
2022/01/04 05:21:00;;;;;;;0.82;0.50;;;7.10;99.90;;;;;;4983701;28;20204;-68
2022/01/04 05:23:27;;;;;;;0.77;0.60;;;7.10;99.90;;;;;;4994168;28;20261;-68
2022/01/04 05:25:54;;;;;;;0.68;0.52;;;7.00;99.90;;;;;;5002994;28;20197;-68
2022/01/04 05:28:22;;;;;;;0.52;0.52;;;7.00;99.90;;;;;;5003308;28;20269;-68
2022/01/04 05:30:49;;;;;;;0.85;0.82;;;6.90;99.90;;;;;;4985848;28;20721;-68
2022/01/04 05:33:15;;;;;;;1.15;1.05;;;6.90;99.90;;;;;;4987742;28;20288;-69
2022/01/04 05:35:42;;;;;;;1.63;1.52;;;6.90;99.90;;;;;;4996172;28;20227;-70
2022/01/04 05:38:10;;;;;;;1.75;1.65;;;7.00;99.90;;;;;;5008642;28;20282;-70
2022/01/04 05:40:37;;;;;;;1.35;1.08;;;7.00;99.90;;;;;;4988836;28;20203;-68
2022/01/04 05:43:04;;;;;;;0.95;0.85;;;7.00;99.90;;;;;;4989022;28;20314;-68
2022/01/04 05:45:32;;;;;;;0.80;0.80;;;6.90;99.90;;;;;;4987197;28;20680;-68
2022/01/04 05:47:59;;;;;;;7.53;1.88;;;6.90;99.90;;;;;;4983284;28;20655;-68
2022/01/04 05:50:26;;;;;;;1.20;1.05;;;6.90;99.90;;;;;;4987194;28;20208;-68
2022/01/04 05:52:52;;;;;;;0.70;0.60;;;6.90;99.90;;;;;;4988661;28;20204;-68
2022/01/04 05:55:19;;;;;;;1.05;0.95;;;6.90;99.90;;;;;;4986494;28;20228;-68
2022/01/04 05:57:46;;;;;;;0.80;0.77;;;6.90;99.90;;;;;;4983257;28;20261;-68
2022/01/04 06:00:13;;;;;;;0.90;0.90;;;6.90;99.90;;;;;;4981554;28;20661;-69
2022/01/04 06:02:41;;;;;;;2.17;1.23;;;6.90;99.90;;;;;;4986721;28;20204;-69
2022/01/04 06:05:09;;;;;;;0.85;0.85;;;6.90;99.90;;;;;;4983294;28;20619;-68
2022/01/04 06:07:35;;;;;;;0.90;0.73;;;6.80;99.90;;;;;;4982997;28;20231;-69
2022/01/04 06:10:02;;;;;;;1.58;1.45;;;6.80;99.90;;;;;;4986803;28;20743;-68
2022/01/04 06:15:15;;;;;;;3.47;1.35;;;6.80;99.90;;;;;;4976758;28;20254;-68
2022/01/04 06:17:47;;;;;;;1.02;0.80;;;6.80;99.90;;;;;;4988045;28;20319;-69
2022/01/04 06:20:16;;;;;;;2.15;0.80;;;6.80;99.90;;;;;;4987784;28;20620;-69
2022/01/04 06:22:43;;;;;;;0.90;0.90;;;6.80;99.90;;;;;;4988743;28;20204;-69
2022/01/04 06:25:14;;;;;;;3.30;1.02;;;6.90;99.90;;;;;;4987242;28;20207;-68
2022/01/04 06:27:43;;;;;;;1.42;1.33;;;6.90;99.90;;;;;;4986509;28;20224;-73
2022/01/04 06:30:11;;;;;;;2.53;0.90;;;6.90;99.90;;;;;;4985668;28;20213;-72
2022/01/04 06:32:37;;;;;;;1.00;0.90;;;6.90;99.90;;;;;;4987692;28;20196;-69
2022/01/04 06:35:06;;;;;;;1.25;1.10;;;6.90;99.90;;;;;;4988735;28;20273;-69
2022/01/04 06:37:34;;;;;;;1.80;1.10;;;7.00;99.90;;;;;;4989596;28;20258;-67
2022/01/04 06:40:00;;;;;;;1.45;1.35;;;7.00;99.90;;;;;;4989765;28;20208;-68
2022/01/04 06:42:27;;;;;;;2.08;1.20;;;7.00;99.90;;;;;;4990706;28;20216;-67
2022/01/04 06:44:54;;;;;;;2.40;1.30;;;7.00;99.90;;;;;;4988210;28;20204;-68
2022/01/04 06:47:20;;;;;;;1.70;1.52;;;7.00;99.90;;;;;;4988249;28;20794;-68
2022/01/04 06:49:47;;;;;;;2.60;2.30;;;7.00;99.90;;;;;;4987818;28;20626;-67
2022/01/04 06:52:15;;;;;;;1.83;1.48;;;7.00;99.90;;;;;;4986948;28;20203;-67
2022/01/04 06:54:42;;;;;;;3.35;2.20;;;7.00;99.90;;;;;;5015140;28;20197;-68
2022/01/04 06:57:09;;;;;;;2.33;2.13;;;7.00;99.90;;;;;;4995156;28;20235;-68
2022/01/04 06:59:35;;;;;;;3.95;2.70;;;7.00;99.90;;;;;;4988673;28;20208;-69
2022/01/04 07:02:02;;;;;;;4.05;2.50;;;7.00;99.90;;;;;;4987256;28;20266;-69
2022/01/04 07:04:29;;;;;;;2.38;2.15;;;7.00;99.90;;;;;;4987194;28;20208;-68
2022/01/04 07:06:56;;;;;;;1.95;1.75;;;7.00;99.90;;;;;;4984656;28;20220;-68
2022/01/04 07:09:24;;;;;;;1.55;1.45;;;7.00;99.90;;;;;;4987061;28;20204;-67
2022/01/04 07:11:51;;;;;;;2.45;1.70;;;7.00;99.90;;;;;;4987642;28;20264;-70
2022/01/04 07:14:18;;;;;;;3.55;2.15;;;7.00;99.90;;;;;;4988002;28;20216;-68
2022/01/04 07:16:45;;;;;;;2.03;1.83;;;7.00;99.90;;;;;;4984317;28;20227;-69
2022/01/04 07:19:11;;;;;;;1.60;1.50;;;7.00;99.90;;;;;;5008252;28;20214;-69
2022/01/04 07:21:38;;;;;;;5.10;1.77;;;7.00;99.90;;;;;;4987738;28;20208;-68
2022/01/04 07:24:06;;;;;;;2.20;2.00;;;7.00;99.90;;;;;;4986068;28;20204;-69
2022/01/04 07:26:34;;;;;;;3.50;2.10;;;7.00;99.90;;;;;;4986975;28;20242;-69
2022/01/04 07:29:00;;;;;;;2.08;1.88;;;7.00;99.90;;;;;;5003786;28;20261;-69
2022/01/04 07:31:27;;;;;;;4.13;2.80;;;7.00;99.90;;;;;;4987232;28;20211;-68
2022/01/04 07:33:54;;;;;;;1.70;1.13;;;6.90;99.90;;;;;;4985145;28;20199;-69
2022/01/04 07:36:21;;;;;;;3.30;2.53;;;6.90;99.90;;;;;;4986336;28;20232;-68
2022/01/04 07:38:48;;;;;;;4.20;1.70;;;7.00;99.90;;;;;;4981392;28;20733;-69
2022/01/04 07:41:15;;;;;;;3.45;2.05;;;7.00;99.90;;;;;;4980194;28;20266;-68
2022/01/04 07:43:43;;;;;;;2.45;1.60;;;7.00;99.90;;;;;;4985338;28;20203;-68
2022/01/04 07:46:09;;;;;;;1.65;1.55;;;7.10;99.90;;;;;;4987310;28;20200;-68
2022/01/04 07:48:36;;;;;;;2.72;2.40;;;7.10;99.90;;;;;;4986604;28;20240;-68
2022/01/04 07:51:03;;;;;;;2.70;1.90;;;7.10;99.90;;;;;;4983751;28;20946;-68
2022/01/04 07:53:31;;;;;;;1.40;1.08;;;7.10;99.90;;;;;;4987943;28;20219;-68
2022/01/04 07:55:58;;;;;;;1.90;1.60;;;7.10;99.90;;;;;;5010153;28;20794;-68
2022/01/04 07:58:25;;;;;;;3.20;1.90;;;7.10;99.90;;;;;;4987496;28;20265;-68
2022/01/04 08:00:53;;;;;;;1.50;1.40;;;7.10;99.90;;;;;;4987672;28;20269;-69
2022/01/04 08:03:20;;;;;;;1.95;1.83;;;7.10;99.90;;;;;;4986881;28;20208;-69
2022/01/04 08:05:46;;;;;;;2.15;1.80;;;7.10;99.90;;;;;;4987019;28;20219;-69
2022/01/04 08:08:13;;;;;;;2.15;1.60;;;7.00;99.90;;;;;;4986774;28;20231;-69
2022/01/04 08:10:41;;;;;;;2.15;2.00;;;7.00;99.90;;;;;;4986335;28;20199;-70
2022/01/04 08:13:08;;;;;;;2.08;1.88;;;7.00;99.90;;;;;;4986084;28;20204;-69
2022/01/04 08:15:34;;;;;;;3.30;2.03;;;7.00;99.90;;;;;;4985025;28;20227;-69
2022/01/04 08:18:02;;;;;;;1.33;1.23;;;7.00;99.90;;;;;;4986101;28;20231;-69
2022/01/04 08:20:29;;;;;;;5.00;3.22;;;7.10;99.90;;;;;;4986105;28;20204;-69
2022/01/04 08:22:57;;;;;;;3.55;2.42;;;7.10;99.90;;;;;;4987176;28;20208;-70
2022/01/04 08:25:23;;;;;;;3.10;2.85;;;7.10;99.90;;;;;;4987042;28;20231;-69
2022/01/04 08:27:52;;;;;;;4.40;3.10;;;7.10;99.90;;;;;;4993853;28;20239;-69
2022/01/04 08:30:21;;;;;;;3.88;2.35;;;7.20;99.90;;;;;;4975943;28;20214;-70
2022/01/04 08:32:48;;;;;;;4.00;3.42;;;7.20;99.90;;;;;;4987493;28;20216;-69
2022/01/04 08:35:15;;;;;;;4.05;3.65;;;7.20;99.90;;;;;;4987318;28;20227;-70
2022/01/04 08:37:42;;;;;;;6.82;3.30;;;7.20;99.90;;;;;;4987269;28;20231;-70
2022/01/04 08:40:10;;;;;;;4.93;3.43;;;7.20;99.90;;;;;;4986991;28;20561;-70
2022/01/04 08:42:38;;;;;;;3.47;2.83;;;7.20;99.90;;;;;;4987342;28;20459;-69
2022/01/04 08:45:07;;;;;;;3.20;2.13;;;7.20;99.90;;;;;;4990013;28;20555;-70
2022/01/04 08:47:33;;;;;;;3.65;3.35;;;7.20;99.90;;;;;;5022874;22;20248;-69
2022/01/04 08:50:00;;;;;;;2.17;2.07;;;7.20;99.90;;;;;;5081275;28;20212;-69
2022/01/04 08:52:28;;;;;;;3.00;2.80;;;7.20;99.90;;;;;;5079790;28;20446;-69
2022/01/04 08:54:55;;;;;;;4.28;3.65;;;7.20;99.90;;;;;;5073010;28;20249;-69
2022/01/04 08:57:23;;;;;;;2.67;2.47;;;7.30;99.90;;;;;;5077883;28;20307;-69
2022/01/04 08:59:54;;;;;;;4.03;3.05;;;7.30;99.90;;;;;;5063852;28;20223;-69
2022/01/04 09:02:21;;;;;;;6.18;4.25;;;7.30;99.90;;;;;;5064673;28;20201;-69
2022/01/04 09:04:48;;;;;;;6.25;2.88;;;7.30;99.90;;;;;;5066811;28;20278;-70
2022/01/04 09:07:14;;;;;;;2.20;2.00;;;7.30;99.90;;;;;;5067011;28;20209;-69
2022/01/04 09:09:43;;;;;;;3.80;2.80;;;7.30;99.90;;;;;;5069304;28;20311;-69
2022/01/04 09:12:10;;;;;;;2.30;2.10;;;7.20;99.90;;;;;;5077833;28;20217;-69
2022/01/04 09:14:53;;;;;;;2.65;2.33;;;7.20;99.90;;;;;;5066759;28;20209;-69
2022/01/04 09:20:07;;;;;;;2.17;1.88;;;7.30;99.90;;;;;;5054929;28;20657;-69
2022/01/04 09:22:34;;;;;;;4.45;1.80;;;7.30;99.90;;;;;;5066510;28;20217;-69
2022/01/04 09:25:02;;;;;;;3.70;2.63;;;7.30;99.90;;;;;;5067420;28;20749;-69
2022/01/04 09:27:29;;;;;;;3.10;2.53;;;7.20;99.90;;;;;;5066431;28;20788;-69
2022/01/04 09:29:56;;;;;;;2.78;2.40;;;7.20;99.90;;;;;;5065675;28;20197;-69
2022/01/04 09:32:23;;;;;;;3.28;2.75;;;7.20;99.90;;;;;;5066780;28;20465;-69
2022/01/04 09:34:50;;;;;;;5.00;2.45;;;7.20;99.90;;;;;;5067138;28;20209;-70
2022/01/04 09:37:16;;;;;;;2.95;2.30;;;7.20;99.90;;;;;;5067806;28;20236;-69
2022/01/04 09:39:43;;;;;;;2.72;2.20;;;7.30;99.90;;;;;;5065938;28;20278;-68
2022/01/04 09:42:11;;;;;;;4.18;2.45;;;7.30;99.90;;;;;;5066442;28;20210;-69
2022/01/04 09:44:38;;;;;;;3.22;2.10;;;7.30;99.90;;;;;;5066157;28;20780;-70
2022/01/04 09:47:05;;;;;;;2.42;2.03;;;7.30;99.90;;;;;;5067345;28;20658;-72
2022/01/04 09:49:33;;;;;;;2.83;2.38;;;7.30;99.90;;;;;;5064390;28;20233;-72
2022/01/04 09:52:00;;;;;;;2.35;2.15;;;7.40;99.90;;;;;;5067794;28;20285;-72
2022/01/04 09:54:27;;;;;;;3.17;2.50;;;7.40;99.90;;;;;;5064055;28;20198;-71
2022/01/04 09:56:55;;;;;;;1.73;1.63;;;7.40;99.90;;;;;;5062321;28;20598;-71
2022/01/04 09:59:23;;;;;;;2.05;1.85;;;7.40;99.90;;;;;;5064768;28;20690;-71
2022/01/04 10:01:55;;;;;;;3.20;1.90;;;7.40;99.90;;;;;;5066760;28;20549;-70
2022/01/04 10:04:24;;;;;;;2.55;2.30;;;7.40;99.90;;;;;;5066241;28;20227;-70
2022/01/04 10:06:59;;;;;;;2.28;2.08;;;7.40;99.90;;;;;;5066392;28;20212;-69
2022/01/04 10:09:45;;;;;;;2.85;2.65;;;7.30;99.90;;;;;;5064539;28;20327;-70
2022/01/04 10:12:14;;;;;;;2.25;1.52;;;7.30;99.90;;;;;;5066871;28;20284;-70
2022/01/04 10:14:43;;;;;;;2.08;1.80;;;7.30;99.90;;;;;;5066527;28;20205;-70
2022/01/04 10:17:13;;;;;;;3.17;2.53;;;7.30;99.90;;;;;;5066823;28;20229;-70
2022/01/04 10:19:43;;;;;;;5.78;2.53;;;7.40;99.90;;;;;;5065575;28;20309;-70
2022/01/04 10:22:16;;;;;;;2.80;2.50;;;7.40;99.90;;;;;;5067528;28;20205;-69
2022/01/04 10:24:44;;;;;;;2.38;2.22;;;7.40;99.90;;;;;;5066492;28;20557;-69
2022/01/04 10:27:29;;;;;;;2.35;2.13;;;7.40;99.90;;;;;;5066077;28;20206;-69
2022/01/04 10:30:20;;;;;;;8.98;2.08;;;7.40;99.90;;;;;;5061437;28;20213;-68
2022/01/04 10:32:50;;;;;;;1.38;1.27;;;7.40;99.90;;;;;;5063846;28;20213;-69
2022/01/04 10:35:25;;;;;;;7.30;2.80;;;7.30;99.90;;;;;;5065073;28;20410;-68
2022/01/04 10:37:52;;;;;;;1.98;1.65;;;7.30;99.90;;;;;;5065628;28;20662;-71
2022/01/04 10:40:19;;;;;;;3.25;1.90;;;7.40;99.90;;;;;;5064951;28;20205;-71
2022/01/04 10:42:46;;;;;;;1.83;1.33;;;7.40;99.90;;;;;;5061725;28;20641;-70
2022/01/04 10:45:30;;;;;;;1.60;1.50;;;7.30;99.90;;;;;;5065252;28;20571;-71
2022/01/04 10:48:11;;;;;;;1.95;1.75;;;7.40;99.90;;;;;;5067278;28;20220;-70
2022/01/04 10:50:39;;;;;;;2.60;2.40;;;7.40;99.90;;;;;;5063436;28;20581;-70
2022/01/04 10:53:06;;;;;;;6.10;2.05;;;7.40;99.90;;;;;;5056789;28;20209;-70
2022/01/04 10:55:34;;;;;;;2.53;1.53;;;7.40;99.90;;;;;;5056537;28;20682;-70
2022/01/04 10:58:02;;;;;;;1.75;1.63;;;7.40;99.90;;;;;;5060208;28;20597;-72
2022/01/04 11:00:31;;;;;;;2.63;1.17;;;7.40;99.90;;;;;;5063681;28;20245;-71
2022/01/04 11:03:00;;;;;;;1.92;1.48;;;7.40;99.90;;;;;;5059685;28;20323;-70
2022/01/04 11:05:27;;;;;;;1.17;1.08;;;7.40;99.90;;;;;;5064052;28;20288;-70
2022/01/04 11:07:58;;;;;;;1.92;1.58;;;7.30;99.90;;;;;;5063063;28;20224;-70
2022/01/04 11:10:25;;;;;;;1.50;1.40;;;7.30;99.90;;;;;;5053792;28;20293;-70
2022/01/04 11:12:52;;;;;;;1.85;1.75;;;7.30;99.90;;;;;;5057198;28;20251;-70
2022/01/04 11:15:19;;;;;;;2.25;0.82;;;7.30;99.90;;;;;;5059285;28;20611;-71
2022/01/04 11:17:47;;;;;;;1.20;0.98;;;7.40;99.90;;;;;;5046436;28;20332;-71
2022/01/04 11:20:14;;;;;;;1.70;1.08;;;7.40;99.90;;;;;;5073711;28;20355;-71
2022/01/04 11:22:45;;;;;;;1.23;0.80;;;7.40;99.90;;;;;;5077268;28;20289;-71
2022/01/04 11:25:13;;;;;;;1.20;1.10;;;7.30;99.90;;;;;;5046861;28;20209;-71
2022/01/04 11:27:41;;;;;;;3.28;1.50;;;7.30;99.90;;;;;;5058831;28;20225;-71
2022/01/04 11:30:15;;;;;;;1.30;1.20;;;7.30;99.90;;;;;;5064099;28;20285;-71
2022/01/04 11:32:44;;;;;;;2.78;2.05;;;7.30;99.90;;;;;;5060857;28;20205;-71
2022/01/04 11:35:16;;;;;;;2.45;1.30;;;7.40;99.90;;;;;;5053488;28;20209;-70
2022/01/04 11:37:51;;;;;;;3.60;1.42;;;7.40;99.90;;;;;;5051142;28;20225;-71
2022/01/04 11:40:27;;;;;;;1.50;1.38;;;7.40;99.90;;;;;;5058614;28;20288;-71
2022/01/04 11:42:54;;;;;;;1.70;1.60;;;7.50;99.90;;;;;;5057546;28;20288;-70
2022/01/04 11:45:48;;;;;;;1.30;1.20;;;7.40;99.90;;;;;;5053529;28;20284;-71
2022/01/04 11:48:32;;;;;;;1.60;1.50;;;7.40;99.90;;;;;;5045481;28;20249;-70
2022/01/04 11:51:03;;;;;;;3.95;2.45;;;7.40;99.90;;;;;;5050518;28;20197;-70
2022/01/04 11:53:29;;;;;;;2.83;2.63;;;7.40;99.90;;;;;;5064302;28;20205;-71
2022/01/04 11:56:00;;;;;;;3.58;2.17;;;7.40;99.90;;;;;;5057911;28;20210;-71
2022/01/04 11:58:41;;;;;;;2.45;2.25;;;7.40;99.90;;;;;;5063698;28;20237;-71
2022/01/04 12:01:08;;;;;;;2.38;1.95;;;7.50;99.90;;;;;;5061628;28;20235;-71
2022/01/04 12:03:44;;;;;;;2.25;1.88;;;7.50;99.90;;;;;;5054516;28;20280;-71
2022/01/04 12:06:14;;;;;;;2.53;2.33;;;7.50;99.90;;;;;;5061225;28;20266;-71
2022/01/04 12:08:42;;;;;;;2.35;2.15;;;7.50;99.90;;;;;;5061282;28;20225;-71
2022/01/04 12:11:37;;;;;;;1.52;1.42;;;7.60;99.90;;;;;;5062729;28;20273;-71
2022/01/04 12:14:04;;;;;;;3.15;1.90;;;7.70;99.90;;;;;;5060839;28;20201;-71
2022/01/04 12:16:33;;;;;;;3.13;1.80;;;7.80;99.90;;;;;;5056671;28;20334;-72
2022/01/04 12:19:01;;;;;;;1.87;1.70;;;7.80;99.90;;;;;;5062984;28;20471;-72
2022/01/04 12:21:45;;;;;;;2.08;1.98;;;7.80;99.90;;;;;;5060541;28;20488;-70
2022/01/04 12:24:24;;;;;;;2.90;1.50;;;7.80;99.90;;;;;;5065346;28;20239;-71
2022/01/04 12:27:09;;;;;;;2.17;1.43;;;7.80;99.90;;;;;;5062893;28;20203;-70
2022/01/04 12:29:37;;;;;;;2.45;1.95;;;7.90;99.90;;;;;;5059547;28;20468;-71
2022/01/04 12:32:07;;;;;;;1.73;1.35;;;7.90;99.90;;;;;;5063234;28;20202;-70
2022/01/04 12:34:39;;;;;;;2.85;1.60;;;7.90;99.90;;;;;;5054778;28;20693;-70
2022/01/04 12:37:18;;;;;;;4.78;2.00;;;7.80;99.90;;;;;;5061008;28;20225;-73
2022/01/04 12:39:45;;;;;;;2.30;2.10;;;7.90;99.90;;;;;;5058905;28;20833;-71
2022/01/04 12:42:15;;;;;;;1.73;1.63;;;7.90;99.90;;;;;;5059508;28;20971;-71
2022/01/04 12:44:42;;;;;;;3.08;2.00;;;7.90;99.90;;;;;;5057053;28;20456;-70
2022/01/04 12:47:09;;;;;;;1.80;1.70;;;7.90;99.90;;;;;;5064310;28;20213;-69
2022/01/04 12:49:37;;;;;;;4.37;1.97;;;8.00;99.90;;;;;;5065948;28;20521;-70
2022/01/04 12:52:07;;;;;;;1.58;1.48;;;8.00;99.90;;;;;;5063513;28;20459;-71
2022/01/04 12:54:35;;;;;;;2.72;2.08;;;8.10;99.90;;;;;;5059592;28;20262;-70
2022/01/04 12:57:05;;;;;;;3.47;2.90;;;8.10;99.90;;;;;;5061374;28;20789;-70
2022/01/04 12:59:35;;;;;;;2.03;1.83;;;8.20;99.90;;;;;;5060097;28;20702;-71
2022/01/04 13:02:04;;;;;;;4.97;2.77;;;8.20;99.90;;;;;;5057301;28;20802;-71
2022/01/04 13:04:33;;;;;;;3.50;2.47;;;8.20;99.90;;;;;;5061172;28;20512;-71
2022/01/04 13:07:01;;;;;;;2.80;2.57;;;8.30;99.90;;;;;;5066845;28;20228;-72
2022/01/04 13:09:29;;;;;;;3.80;3.10;;;8.30;99.90;;;;;;5066896;28;20573;-70
2022/01/04 13:11:58;;;;;;;3.55;3.25;;;8.30;99.90;;;;;;5056620;28;20529;-72
2022/01/04 13:14:26;;;;;;;2.80;2.50;;;8.30;99.90;;;;;;5063671;28;20201;-71